Terminal Aerodrome Forecast
Issued by NWS

Home | Current Version | Previous Version | Text Only | Print | Product List | Glossary On
Versions: 1 2 3 4 5 6 7 8 9 10 11 12 13 14 15 16 17 18 19
000
FTUS44 KJAN 221400 AAA
TAFGTR
TAF AMD
KGTR 221448Z 2215/2312 VRB04KT P6SM BKN008
     FM221700 12007KT P6SM SCT015 SCT040
     FM221900 10006KT P6SM VCTS BKN040CB BKN100
     FM230100 VRB03KT P6SM SCT100
     FM230800 VRB03KT 4SM BR SCT005=

USA.gov is the U.S. government's official web portal to all federal, state and local government web resources and services.